createdAt,value
2023-07-18T00:02:12.480Z,97763.34
2023-07-18T00:04:40.173Z,97762.44
2023-07-18T00:07:07.699Z,97768.41
2023-07-18T00:09:34.985Z,97773.03
2023-07-18T00:12:01.815Z,97775.09
2023-07-18T00:14:31.067Z,97777.69
2023-07-18T00:16:57.907Z,97772.78
2023-07-18T00:19:24.710Z,97783.63
2023-07-18T00:21:51.555Z,97774.22
2023-07-18T00:24:18.307Z,97784.81
2023-07-18T00:26:45.183Z,97782.44
2023-07-18T00:29:11.945Z,97778.38
2023-07-18T00:31:38.721Z,97783.75
2023-07-18T00:34:06.113Z,97787.06
2023-07-18T00:36:32.909Z,97787.13
2023-07-18T00:38:59.660Z,97785.75
2023-07-18T00:41:26.487Z,97790.09
2023-07-18T00:43:53.212Z,97783.38
2023-07-18T00:46:20.027Z,97790.03
2023-07-18T00:48:46.866Z,97785.97
2023-07-18T00:51:14.060Z,97792.59
2023-07-18T00:53:41.772Z,97789.50
2023-07-18T00:56:12.889Z,97780.75
2023-07-18T00:58:40.035Z,97786.19
2023-07-18T01:01:06.861Z,97795.72
2023-07-18T01:03:34.056Z,97787.81
2023-07-18T01:06:01.118Z,97776.59
2023-07-18T01:08:28.010Z,97778.75
2023-07-18T01:10:54.774Z,97765.66
2023-07-18T01:13:21.582Z,97771.50
2023-07-18T01:15:48.374Z,97770.38
2023-07-18T01:18:15.279Z,97773.88
2023-07-18T01:20:45.830Z,97771.19
2023-07-18T01:23:13.301Z,97764.47
2023-07-18T01:25:43.107Z,97765.91
2023-07-18T01:28:12.044Z,97770.75
2023-07-18T01:30:39.229Z,97769.28
2023-07-18T01:33:06.508Z,97769.41
2023-07-18T01:35:33.744Z,97765.91
2023-07-18T01:38:00.592Z,97772.28
2023-07-18T01:40:27.722Z,97773.31
2023-07-18T01:42:56.312Z,97767.75
2023-07-18T01:45:25.224Z,97772.75
2023-07-18T01:47:52.769Z,97774.22
2023-07-18T01:50:20.252Z,97767.06
2023-07-18T01:52:48.873Z,97771.38
2023-07-18T01:55:16.613Z,97773.47
2023-07-18T01:57:45.860Z,97769.84
2023-07-18T02:00:14.057Z,97773.09
2023-07-18T02:02:41.881Z,97769.88
2023-07-18T02:05:09.475Z,97759.84
2023-07-18T02:07:36.623Z,97765.53
2023-07-18T02:10:03.863Z,97768.00
2023-07-18T02:12:30.865Z,97769.22
2023-07-18T02:14:57.623Z,97761.41
2023-07-18T02:17:24.568Z,97766.16
2023-07-18T02:19:51.363Z,97767.66
2023-07-18T02:22:20.558Z,97764.47
2023-07-18T02:24:49.593Z,97758.81
2023-07-18T02:27:16.712Z,97760.97
2023-07-18T02:29:43.446Z,97770.09
2023-07-18T02:32:10.203Z,97773.56
2023-07-18T02:34:36.926Z,97764.25
2023-07-18T02:37:03.727Z,97759.94
2023-07-18T02:39:34.258Z,97761.59
2023-07-18T02:42:01.162Z,97750.75
2023-07-18T02:44:28.280Z,97754.94
2023-07-18T02:46:55.154Z,97756.81
2023-07-18T02:49:21.986Z,97753.81
2023-07-18T02:51:48.884Z,97759.91
2023-07-18T02:54:15.635Z,97759.88
2023-07-18T02:56:42.414Z,97753.19
2023-07-18T02:59:09.241Z,97764.38
2023-07-18T03:01:36.028Z,97764.19
2023-07-18T03:04:02.984Z,97767.16
2023-07-18T03:06:30.250Z,97772.97
2023-07-18T03:08:57.098Z,97773.88
2023-07-18T03:11:23.872Z,97774.38
2023-07-18T03:13:51.086Z,97776.06
2023-07-18T03:16:17.877Z,97774.88
2023-07-18T03:18:44.718Z,97778.41
2023-07-18T03:21:11.523Z,97778.06
2023-07-18T03:23:38.280Z,97778.22
2023-07-18T03:26:05.063Z,97776.53
2023-07-18T03:28:31.796Z,97781.72
2023-07-18T03:30:58.613Z,97767.56
2023-07-18T03:33:25.572Z,97769.22
2023-07-18T03:35:52.300Z,97770.88
2023-07-18T03:38:19.162Z,97759.09
2023-07-18T03:40:48.395Z,97767.56
2023-07-18T03:43:18.067Z,97765.84
2023-07-18T03:45:44.872Z,97773.56
2023-07-18T03:48:11.760Z,97769.03
2023-07-18T03:50:41.787Z,97775.63
2023-07-18T03:53:10.182Z,97779.81
2023-07-18T03:55:37.274Z,97780.81
2023-07-18T03:58:04.054Z,97778.94
2023-07-18T04:00:30.925Z,97776.59
2023-07-18T04:03:00.531Z,97777.84
2023-07-18T04:05:27.364Z,97775.63
2023-07-18T04:07:54.250Z,97776.44
2023-07-18T04:10:21.364Z,97771.94
2023-07-18T04:12:48.113Z,97763.28
2023-07-18T04:15:16.263Z,97767.28
2023-07-18T04:17:43.256Z,97775.28
2023-07-18T04:20:10.565Z,97768.94
2023-07-18T04:22:37.346Z,97770.69
2023-07-18T04:25:04.341Z,97775.78
2023-07-18T04:27:31.126Z,97781.69
2023-07-18T04:29:57.938Z,97771.88
2023-07-18T04:32:25.869Z,97771.22
2023-07-18T04:34:52.779Z,97774.72
2023-07-18T04:37:20.131Z,97764.38
2023-07-18T04:39:46.870Z,97761.03
2023-07-18T04:42:13.741Z,97763.22
2023-07-18T04:44:40.650Z,97757.69
2023-07-18T04:47:09.927Z,97756.50
2023-07-18T04:49:37.039Z,97756.19
2023-07-18T04:52:04.822Z,97761.72
2023-07-18T04:54:31.692Z,97761.56
2023-07-18T04:56:58.465Z,97755.53
2023-07-18T04:59:25.203Z,97754.88
2023-07-18T05:01:55.342Z,97761.56
2023-07-18T05:04:22.533Z,97759.06
2023-07-18T05:06:50.077Z,97751.38
2023-07-18T05:09:18.746Z,97758.38
2023-07-18T05:11:47.165Z,97757.22
2023-07-18T05:14:13.954Z,97769.09
2023-07-18T05:16:40.714Z,97754.72
2023-07-18T05:19:07.498Z,97748.69
2023-07-18T05:21:34.414Z,97753.38
2023-07-18T05:24:01.170Z,97750.56
2023-07-18T05:26:28.027Z,97752.84
2023-07-18T05:28:55.434Z,97749.47
2023-07-18T05:31:23.072Z,97751.75
2023-07-18T05:33:50.273Z,97747.31
2023-07-18T05:36:18.012Z,97751.81
2023-07-18T05:38:46.554Z,97747.00
2023-07-18T05:41:13.531Z,97750.47
2023-07-18T05:43:40.484Z,97742.00
2023-07-18T05:46:07.405Z,97738.09
2023-07-18T05:48:34.243Z,97735.72
2023-07-18T05:51:01.643Z,97738.38
2023-07-18T05:53:28.435Z,97742.56
2023-07-18T05:55:55.286Z,97742.66
2023-07-18T05:58:22.493Z,97743.81
2023-07-18T06:00:49.402Z,97743.09
2023-07-18T06:03:16.320Z,97747.16
2023-07-18T06:05:43.168Z,97739.13
2023-07-18T06:08:11.348Z,97742.38
2023-07-18T06:10:38.175Z,97736.69
2023-07-18T06:13:04.944Z,97735.38
2023-07-18T06:15:31.905Z,97736.38
2023-07-18T06:17:58.784Z,97740.78
2023-07-18T06:20:25.598Z,97738.38
2023-07-18T06:22:52.487Z,97737.56
2023-07-18T06:25:19.440Z,97736.34
2023-07-18T06:27:46.244Z,97735.34
2023-07-18T06:30:13.180Z,97731.31
2023-07-18T06:32:40.884Z,97729.31
2023-07-18T06:35:22.420Z,97720.59
2023-07-18T06:37:51.196Z,97724.59
2023-07-18T06:40:18.363Z,97713.94
2023-07-18T06:42:45.376Z,97720.25
2023-07-18T06:45:13.900Z,97715.75
2023-07-18T06:47:41.023Z,97719.44
2023-07-18T06:50:08.521Z,97708.19
2023-07-18T06:52:37.012Z,97714.22
2023-07-18T06:55:05.033Z,97705.53
2023-07-18T06:57:31.880Z,97710.09
2023-07-18T06:59:58.769Z,97704.56
2023-07-18T07:02:25.712Z,97709.22
2023-07-18T07:04:52.545Z,97702.50
2023-07-18T07:07:19.364Z,97693.66
2023-07-18T07:09:46.115Z,97698.16
2023-07-18T07:12:22.347Z,97696.16
2023-07-18T07:14:57.767Z,97694.31
2023-07-18T07:17:25.196Z,97690.63
2023-07-18T07:19:51.993Z,97689.63
2023-07-18T07:22:18.937Z,97687.25
2023-07-18T07:24:48.184Z,97683.03
2023-07-18T07:27:14.966Z,97684.88
2023-07-18T07:29:41.778Z,97677.69
2023-07-18T07:32:09.079Z,97667.44
2023-07-18T07:34:37.173Z,97665.25
2023-07-18T07:37:05.427Z,97670.44
2023-07-18T07:39:32.166Z,97668.44
2023-07-18T07:41:58.963Z,97661.72
2023-07-18T07:44:25.767Z,97666.53
2023-07-18T07:46:52.729Z,97662.19
2023-07-18T07:49:19.522Z,97658.34
2023-07-18T07:51:49.365Z,97661.66
2023-07-18T07:54:16.148Z,97657.50
2023-07-18T07:56:42.926Z,97655.84
2023-07-18T07:59:12.062Z,97656.78
2023-07-18T08:01:40.008Z,97657.44
2023-07-18T08:04:08.290Z,97646.25
2023-07-18T08:06:35.197Z,97640.72
2023-07-18T08:09:03.805Z,97641.56
2023-07-18T08:11:30.563Z,97643.03
2023-07-18T08:13:57.936Z,97640.63
2023-07-18T08:16:24.861Z,97630.22
2023-07-18T08:18:51.704Z,97631.22
2023-07-18T08:21:20.547Z,97626.69
2023-07-18T08:23:47.665Z,97631.50
2023-07-18T08:26:14.480Z,97621.44
2023-07-18T08:28:41.336Z,97615.72
2023-07-18T08:31:08.177Z,97618.31
2023-07-18T08:33:35.003Z,97615.63
2023-07-18T08:36:01.785Z,97605.38
2023-07-18T08:38:28.823Z,97609.38
2023-07-18T08:40:55.668Z,97607.72
2023-07-18T08:43:22.608Z,97611.16
2023-07-18T08:45:50.777Z,97603.66
2023-07-18T08:48:17.809Z,97603.75
2023-07-18T08:50:45.014Z,97609.72
2023-07-18T08:53:12.093Z,97603.72
2023-07-18T08:55:41.941Z,97602.31
2023-07-18T08:58:09.312Z,97606.47
2023-07-18T09:00:36.082Z,97605.28
2023-07-18T09:03:02.846Z,97599.47
2023-07-18T09:05:33.619Z,97600.28
2023-07-18T09:08:01.494Z,97583.47
2023-07-18T09:10:28.503Z,97579.88
2023-07-18T09:13:00.029Z,97582.16
2023-07-18T09:15:26.785Z,97578.28
2023-07-18T09:18:04.110Z,97577.13
2023-07-18T09:20:31.827Z,97569.00
2023-07-18T09:23:00.826Z,97561.41
2023-07-18T09:25:28.221Z,97558.72
2023-07-18T09:27:56.188Z,97553.94
2023-07-18T09:30:24.674Z,97547.53
2023-07-18T09:32:52.736Z,97564.16
2023-07-18T09:35:19.784Z,97556.88
2023-07-18T09:37:49.387Z,97561.47
2023-07-18T09:40:18.463Z,97557.66
2023-07-18T09:42:47.580Z,97542.84
2023-07-18T09:45:15.946Z,97544.72
2023-07-18T09:47:43.968Z,97540.19
2023-07-18T09:50:11.996Z,97535.44
2023-07-18T09:52:42.853Z,97537.59
2023-07-18T09:55:13.207Z,97527.56
2023-07-18T09:57:44.016Z,97529.56
2023-07-18T10:00:16.841Z,97526.81
2023-07-18T10:02:44.612Z,97537.16
2023-07-18T10:05:12.142Z,97529.34
2023-07-18T10:07:40.677Z,97525.69
2023-07-18T10:10:09.685Z,97527.34
2023-07-18T10:12:56.405Z,97522.16
2023-07-18T10:15:24.797Z,97511.44
2023-07-18T10:17:51.711Z,97510.59
2023-07-18T10:20:32.028Z,97510.22
2023-07-18T10:23:01.619Z,97511.31
2023-07-18T10:25:31.060Z,97504.38
2023-07-18T10:27:59.965Z,97503.75
2023-07-18T10:30:38.753Z,97507.84
2023-07-18T10:33:09.966Z,97514.47
2023-07-18T10:35:42.909Z,97511.47
2023-07-18T10:38:09.833Z,97509.06
2023-07-18T10:40:40.795Z,97497.81
2023-07-18T10:43:11.899Z,97490.41
2023-07-18T10:45:40.456Z,97498.38
2023-07-18T10:48:15.052Z,97486.88
2023-07-18T10:50:43.375Z,97480.22
2023-07-18T10:53:21.600Z,97487.44
2023-07-18T10:55:50.130Z,97481.63
2023-07-18T10:58:22.108Z,97481.31
2023-07-18T11:00:51.176Z,97479.56
2023-07-18T11:03:28.635Z,97481.91
2023-07-18T11:05:55.774Z,97489.38
2023-07-18T11:08:30.916Z,97485.84
2023-07-18T11:11:06.284Z,97487.16
2023-07-18T11:13:37.359Z,97477.47
2023-07-18T11:16:15.744Z,97473.81
2023-07-18T11:18:47.129Z,97474.47
2023-07-18T11:21:17.904Z,97481.50
2023-07-18T11:23:45.694Z,97483.63
2023-07-18T11:26:18.166Z,97471.22
2023-07-18T11:28:47.058Z,97468.34
2023-07-18T11:31:40.850Z,97450.28
2023-07-18T11:34:10.589Z,97449.38
2023-07-18T11:36:41.746Z,97433.00
2023-07-18T11:39:23.571Z,97434.28
2023-07-18T11:41:53.102Z,97420.34
2023-07-18T11:44:27.268Z,97388.28
2023-07-18T11:46:55.173Z,97352.72
2023-07-18T11:49:35.033Z,97329.78
2023-07-18T11:52:03.711Z,97293.63
2023-07-18T11:54:31.117Z,97296.72
2023-07-18T11:56:57.871Z,97300.25
2023-07-18T11:59:24.714Z,97312.69
2023-07-18T12:01:51.697Z,97349.09
2023-07-18T12:04:18.660Z,97331.91
2023-07-18T12:06:47.598Z,97302.16
2023-07-18T12:09:15.563Z,97304.00
2023-07-18T12:11:43.951Z,97309.34
2023-07-18T12:14:11.337Z,97363.56
2023-07-18T12:16:39.584Z,97407.19
2023-07-18T12:19:06.408Z,97417.34
2023-07-18T12:21:33.244Z,97399.56
2023-07-18T12:24:00.017Z,97425.19
2023-07-18T12:26:27.029Z,97450.03
2023-07-18T12:28:55.750Z,97510.81
2023-07-18T12:31:23.308Z,97563.34
2023-07-18T12:33:50.476Z,97597.47
2023-07-18T12:36:17.703Z,97581.50
2023-07-18T12:38:44.721Z,97549.66
2023-07-18T12:41:11.580Z,97571.34
2023-07-18T12:43:38.338Z,97596.19
2023-07-18T12:46:07.486Z,97609.41
2023-07-18T12:48:34.389Z,97595.78
2023-07-18T12:51:03.444Z,97585.03
2023-07-18T12:53:30.274Z,97577.34
2023-07-18T12:55:57.142Z,97554.19
2023-07-18T12:58:23.950Z,97508.69
2023-07-18T13:00:50.787Z,97430.75
2023-07-18T13:03:17.866Z,97378.44
2023-07-18T13:05:45.121Z,97373.06
2023-07-18T13:08:12.506Z,97344.94
2023-07-18T13:10:39.328Z,97326.75
2023-07-18T13:13:07.765Z,97308.78
2023-07-18T13:15:34.724Z,97304.22
2023-07-18T13:18:01.709Z,97286.03
2023-07-18T13:20:29.157Z,97292.22
2023-07-18T13:22:57.277Z,97271.56
2023-07-18T13:25:24.225Z,97236.41
2023-07-18T13:27:51.130Z,97267.63
2023-07-18T13:30:18.134Z,97279.63
2023-07-18T13:32:46.653Z,97275.88
2023-07-18T13:35:13.564Z,97268.25
2023-07-18T13:37:40.342Z,97266.16
2023-07-18T13:40:08.601Z,97275.69
2023-07-18T13:42:35.476Z,97271.53
2023-07-18T13:45:04.148Z,97273.81
2023-07-18T13:47:32.069Z,97268.81
2023-07-18T13:49:58.888Z,97282.88
2023-07-18T13:52:26.841Z,97293.22
2023-07-18T13:54:53.648Z,97283.91
2023-07-18T13:57:23.860Z,97285.13
2023-07-18T13:59:50.667Z,97290.09
2023-07-18T14:02:17.823Z,97288.69
2023-07-18T14:04:44.719Z,97283.47
2023-07-18T14:07:11.519Z,97286.16
2023-07-18T14:09:38.268Z,97287.00
2023-07-18T14:12:06.691Z,97279.75
2023-07-18T14:14:33.522Z,97275.03
2023-07-18T14:17:00.453Z,97259.09
2023-07-18T14:19:27.282Z,97248.50
2023-07-18T14:21:54.033Z,97248.50
2023-07-18T14:24:20.781Z,97238.78
2023-07-18T14:26:47.572Z,97221.63
2023-07-18T14:29:14.363Z,97220.56
2023-07-18T14:31:41.496Z,97207.78
2023-07-18T14:34:08.533Z,97204.66
2023-07-18T14:36:35.461Z,97208.56
2023-07-18T14:39:02.485Z,97221.59
2023-07-18T14:41:29.320Z,97225.53
2023-07-18T14:43:56.117Z,97214.13
2023-07-18T14:46:23.912Z,97212.88
2023-07-18T14:48:51.104Z,97217.22
2023-07-18T14:51:17.975Z,97224.66
2023-07-18T14:53:44.772Z,97225.25
2023-07-18T14:56:11.548Z,97245.53
2023-07-18T14:58:38.357Z,97237.03
2023-07-18T15:01:05.279Z,97244.47
2023-07-18T15:03:32.309Z,97249.66
2023-07-18T15:05:59.756Z,97268.88
2023-07-18T15:08:26.499Z,97263.91
2023-07-18T15:10:53.349Z,97261.00
2023-07-18T15:13:20.147Z,97256.81
2023-07-18T15:15:47.064Z,97247.69
2023-07-18T15:18:15.651Z,97235.66
2023-07-18T15:20:43.406Z,97229.25
2023-07-18T15:23:10.353Z,97223.66
2023-07-18T15:25:37.321Z,97229.47
2023-07-18T15:28:04.436Z,97213.69
2023-07-18T15:30:31.265Z,97217.81
2023-07-18T15:36:03.270Z,97176.81
2023-07-18T15:38:30.065Z,97167.69
2023-07-18T15:40:58.803Z,97163.34
2023-07-18T15:43:26.854Z,97157.97
2023-07-18T15:45:58.717Z,97163.75
2023-07-18T15:48:32.112Z,97153.38
2023-07-18T15:50:58.926Z,97134.09
2023-07-18T15:53:25.983Z,97130.94
2023-07-18T15:55:53.073Z,97110.84
2023-07-18T15:58:22.820Z,97105.22
2023-07-18T16:00:50.835Z,97089.66
2023-07-18T16:03:17.763Z,97081.59
2023-07-18T16:05:45.087Z,97079.50
2023-07-18T16:08:11.917Z,97072.84
2023-07-18T16:10:41.981Z,97076.97
2023-07-18T16:13:08.895Z,97070.31
2023-07-18T16:15:36.501Z,97058.88
2023-07-18T16:18:04.825Z,97056.63
2023-07-18T16:20:32.259Z,97051.41
2023-07-18T16:22:59.370Z,97031.50
2023-07-18T16:25:26.315Z,97026.09
2023-07-18T16:27:53.143Z,97022.81
2023-07-18T16:30:20.044Z,97027.75
2023-07-18T16:32:47.059Z,97018.25
2023-07-18T16:35:14.116Z,97013.69
2023-07-18T16:37:41.139Z,97015.53
2023-07-18T16:40:11.019Z,97019.06
2023-07-18T16:42:37.872Z,97005.97
2023-07-18T16:45:05.562Z,97005.97
2023-07-18T16:47:32.457Z,97003.28
2023-07-18T16:49:59.761Z,97009.72
2023-07-18T16:52:26.595Z,97024.00
2023-07-18T16:54:53.446Z,97017.56
2023-07-18T16:57:20.269Z,97027.91
2023-07-18T16:59:47.110Z,97015.25
2023-07-18T17:02:13.910Z,97018.56
2023-07-18T17:04:40.785Z,97024.53
2023-07-18T17:07:07.746Z,97019.16
2023-07-18T17:09:34.559Z,97020.56
2023-07-18T17:12:01.645Z,97030.31
2023-07-18T17:14:28.570Z,97025.97
2023-07-18T17:16:55.430Z,97033.81
2023-07-18T17:19:22.340Z,97033.81
2023-07-18T17:21:49.175Z,97035.91
2023-07-18T17:24:16.042Z,97044.59
2023-07-18T17:26:43.111Z,97040.03
2023-07-18T17:29:10.007Z,97047.53
2023-07-18T17:31:36.801Z,97058.91
2023-07-18T17:34:05.682Z,97056.66
2023-07-18T17:36:32.539Z,97066.63
2023-07-18T17:38:59.353Z,97072.44
2023-07-18T17:41:26.136Z,97067.50
2023-07-18T17:43:52.919Z,97067.72
2023-07-18T17:46:20.793Z,97064.44
2023-07-18T17:48:47.732Z,97070.03
2023-07-18T17:51:14.704Z,97063.00
2023-07-18T17:53:41.526Z,97062.41
2023-07-18T17:56:08.435Z,97064.25
2023-07-18T17:58:36.297Z,97064.50
2023-07-18T18:01:03.332Z,97062.00
2023-07-18T18:03:30.215Z,97070.31
2023-07-18T18:05:57.134Z,97054.38
2023-07-18T18:08:23.889Z,97054.38
2023-07-18T18:10:51.325Z,97044.03
2023-07-18T18:13:18.242Z,97043.22
2023-07-18T18:16:06.206Z,97038.28
2023-07-18T18:18:34.624Z,97045.53
2023-07-18T18:21:03.276Z,97040.16
2023-07-18T18:23:38.685Z,97040.59
2023-07-18T18:26:07.609Z,97041.63
2023-07-18T18:28:34.839Z,97049.09
2023-07-18T18:31:01.932Z,97055.75
2023-07-18T18:33:28.835Z,97067.56
2023-07-18T18:35:55.964Z,97075.06
2023-07-18T18:38:22.887Z,97082.09
2023-07-18T18:40:49.742Z,97090.38
2023-07-18T18:43:16.567Z,97104.88
2023-07-18T18:45:44.176Z,97110.50
2023-07-18T18:48:11.278Z,97123.13
2023-07-18T18:50:38.549Z,97136.59
2023-07-18T18:53:05.306Z,97133.31
2023-07-18T18:55:33.975Z,97094.38
2023-07-18T18:58:10.692Z,96981.75
2023-07-18T19:00:38.378Z,96980.09
2023-07-18T19:03:05.355Z,96996.03
2023-07-18T19:05:32.303Z,96983.63
2023-07-18T19:07:59.176Z,96970.16
2023-07-18T19:10:27.889Z,96932.88
2023-07-18T19:12:54.734Z,96941.38
2023-07-18T19:15:21.684Z,96993.16
2023-07-18T19:17:49.005Z,97017.38
2023-07-18T19:20:16.729Z,97017.59
2023-07-18T19:22:43.621Z,97011.81
2023-07-18T19:25:10.511Z,97005.63
2023-07-18T19:27:37.622Z,97013.69
2023-07-18T19:30:06.053Z,97025.50
2023-07-18T19:32:33.229Z,97029.03
2023-07-18T19:35:01.005Z,97022.81
2023-07-18T19:37:27.970Z,97028.44
2023-07-18T19:39:54.744Z,97034.88
2023-07-18T19:42:21.545Z,97050.19
2023-07-18T19:44:49.200Z,97044.22
2023-07-18T19:47:16.682Z,97056.25
2023-07-18T19:49:43.534Z,97058.09
2023-07-18T19:52:10.433Z,97062.66
2023-07-18T19:54:37.321Z,97064.31
2023-07-18T19:57:04.382Z,97072.59
2023-07-18T19:59:31.492Z,97084.19
2023-07-18T20:01:58.417Z,97102.22
2023-07-18T20:04:25.534Z,97113.41
2023-07-18T20:06:52.776Z,97118.19
2023-07-18T20:09:19.837Z,97118.41
2023-07-18T20:11:46.749Z,97112.41
2023-07-18T20:14:13.588Z,97114.28
2023-07-18T20:16:40.613Z,97133.13
2023-07-18T20:19:07.596Z,97131.47
2023-07-18T20:21:34.456Z,97130.84
2023-07-18T20:24:04.589Z,97144.75
2023-07-18T20:26:35.576Z,97140.19
2023-07-18T20:29:02.749Z,97135.63
2023-07-18T20:31:29.673Z,97145.78
2023-07-18T20:33:56.478Z,97150.56
2023-07-18T20:36:23.408Z,97141.03
2023-07-18T20:38:50.195Z,97134.84
2023-07-18T20:41:17.212Z,97074.44
2023-07-18T20:43:44.361Z,97036.16
2023-07-18T20:46:13.024Z,97041.09
2023-07-18T20:48:39.862Z,97074.44
2023-07-18T20:51:07.362Z,97084.38
2023-07-18T20:53:34.190Z,97116.66
2023-07-18T20:56:01.158Z,97114.38
2023-07-18T20:58:27.975Z,97123.28
2023-07-18T21:00:55.225Z,97108.59
2023-07-18T21:03:22.243Z,97078.63
2023-07-18T21:05:51.607Z,97059.56
2023-07-18T21:08:19.075Z,97052.72
2023-07-18T21:10:46.219Z,97034.94
2023-07-18T21:13:13.450Z,97031.41
2023-07-18T21:15:40.467Z,97033.28
2023-07-18T21:18:07.379Z,97028.13
2023-07-18T21:20:59.962Z,97032.69
2023-07-18T21:23:35.358Z,97035.78
2023-07-18T21:26:17.548Z,97040.13
2023-07-18T21:29:04.080Z,97033.09
2023-07-18T21:31:40.194Z,97025.25
2023-07-18T21:34:22.297Z,97031.66
2023-07-18T21:36:55.428Z,97032.72
2023-07-18T21:39:29.490Z,97039.75
2023-07-18T21:42:02.512Z,97030.84
2023-07-18T21:44:45.274Z,97012.44
2023-07-18T21:47:26.295Z,97042.03
2023-07-18T21:50:07.421Z,97034.16
2023-07-18T21:52:42.169Z,97044.91
2023-07-18T21:55:12.012Z,97077.00
2023-07-18T21:57:38.988Z,97044.09
2023-07-18T22:00:06.600Z,97038.53
2023-07-18T22:02:37.651Z,97030.47
2023-07-18T22:05:05.098Z,97013.50
2023-07-18T22:07:32.181Z,97000.88
2023-07-18T22:10:00.292Z,96999.22
2023-07-18T22:12:27.151Z,97002.97
2023-07-18T22:14:54.029Z,96988.47
2023-07-18T22:17:21.173Z,96983.53
2023-07-18T22:19:48.458Z,96984.56
2023-07-18T22:22:16.083Z,96996.38
2023-07-18T22:24:43.044Z,97003.38
2023-07-18T22:27:09.900Z,96996.97
2023-07-18T22:29:36.796Z,96998.22
2023-07-18T22:32:04.666Z,96996.78
2023-07-18T22:34:32.498Z,96998.44
2023-07-18T22:36:59.264Z,97004.66
2023-07-18T22:39:35.711Z,97003.81
2023-07-18T22:42:33.619Z,96995.16
2023-07-18T22:45:01.265Z,96994.31
2023-07-18T22:47:28.119Z,97003.22
2023-07-18T22:49:55.136Z,97015.00
2023-07-18T22:52:22.114Z,97017.53
2023-07-18T22:54:51.039Z,97021.06
2023-07-18T22:57:18.009Z,97008.88
2023-07-18T22:59:45.221Z,97020.66
2023-07-18T23:02:12.023Z,97019.63
2023-07-18T23:04:40.127Z,97009.91
2023-07-18T23:07:07.381Z,97014.69
2023-07-18T23:09:34.485Z,97012.19
2023-07-18T23:12:03.571Z,97005.59
2023-07-18T23:14:30.488Z,97008.28
2023-07-18T23:16:57.694Z,97000.22
2023-07-18T23:19:25.061Z,97004.78
2023-07-18T23:21:52.214Z,97000.22
2023-07-18T23:24:19.021Z,97002.69
2023-07-18T23:26:45.904Z,97002.53
2023-07-18T23:29:12.800Z,97006.25
2023-07-18T23:31:39.587Z,97001.91
2023-07-18T23:34:06.831Z,97015.13
2023-07-18T23:36:33.768Z,97010.59
2023-07-18T23:39:00.569Z,97022.38
2023-07-18T23:41:27.432Z,97022.38
2023-07-18T23:43:54.215Z,97014.75
2023-07-18T23:46:21.086Z,97010.41
2023-07-18T23:48:47.927Z,97003.16
2023-07-18T23:51:15.019Z,97007.72
2023-07-18T23:53:41.828Z,97002.56
2023-07-18T23:56:08.629Z,97003.59
2023-07-18T23:58:35.538Z,96996.78
